sensor_id;sensor_type;location;lat;lon;timestamp;temperature;humidity
27795;DHT22;15176;50.844;4.412;2023-03-02T00:01:43;7.90;70.60
27795;DHT22;15176;50.844;4.412;2023-03-02T00:04:14;7.80;70.60
27795;DHT22;15176;50.844;4.412;2023-03-02T00:06:41;7.90;70.20
27795;DHT22;15176;50.844;4.412;2023-03-02T00:09:07;7.90;70.30
27795;DHT22;15176;50.844;4.412;2023-03-02T00:11:34;7.90;70.20
27795;DHT22;15176;50.844;4.412;2023-03-02T00:14:00;7.70;70.90
27795;DHT22;15176;50.844;4.412;2023-03-02T00:16:26;7.70;71.00
27795;DHT22;15176;50.844;4.412;2023-03-02T00:18:52;7.80;71.10
27795;DHT22;15176;50.844;4.412;2023-03-02T00:21:17;7.40;72.40
27795;DHT22;15176;50.844;4.412;2023-03-02T00:23:43;7.50;73.00
27795;DHT22;15176;50.844;4.412;2023-03-02T00:26:09;7.50;73.30
27795;DHT22;15176;50.844;4.412;2023-03-02T00:28:35;7.50;72.50
27795;DHT22;15176;50.844;4.412;2023-03-02T00:31:04;7.50;73.20
27795;DHT22;15176;50.844;4.412;2023-03-02T00:33:32;7.50;73.90
27795;DHT22;15176;50.844;4.412;2023-03-02T00:35:57;7.50;73.10
27795;DHT22;15176;50.844;4.412;2023-03-02T00:38:23;7.50;72.90
27795;DHT22;15176;50.844;4.412;2023-03-02T00:40:49;7.50;72.90
27795;DHT22;15176;50.844;4.412;2023-03-02T00:43:15;7.50;72.80
27795;DHT22;15176;50.844;4.412;2023-03-02T00:45:41;7.60;73.30
27795;DHT22;15176;50.844;4.412;2023-03-02T00:48:07;7.80;73.10
27795;DHT22;15176;50.844;4.412;2023-03-02T00:50:33;7.90;72.20
27795;DHT22;15176;50.844;4.412;2023-03-02T00:53:04;7.80;72.10
27795;DHT22;15176;50.844;4.412;2023-03-02T00:55:29;7.70;72.80
27795;DHT22;15176;50.844;4.412;2023-03-02T00:57:55;7.80;73.00
27795;DHT22;15176;50.844;4.412;2023-03-02T01:00:22;7.70;72.10
27795;DHT22;15176;50.844;4.412;2023-03-02T01:02:48;7.60;72.90
27795;DHT22;15176;50.844;4.412;2023-03-02T01:05:15;7.60;73.70
27795;DHT22;15176;50.844;4.412;2023-03-02T01:07:41;7.80;72.80
27795;DHT22;15176;50.844;4.412;2023-03-02T01:10:07;7.80;72.20
27795;DHT22;15176;50.844;4.412;2023-03-02T01:12:33;8.10;71.40
27795;DHT22;15176;50.844;4.412;2023-03-02T01:14:59;8.00;70.70
27795;DHT22;15176;50.844;4.412;2023-03-02T01:17:25;7.80;71.80
27795;DHT22;15176;50.844;4.412;2023-03-02T01:19:51;7.80;74.10
27795;DHT22;15176;50.844;4.412;2023-03-02T01:22:18;8.00;73.60
27795;DHT22;15176;50.844;4.412;2023-03-02T01:24:44;7.90;72.10
27795;DHT22;15176;50.844;4.412;2023-03-02T01:27:10;7.80;72.40
27795;DHT22;15176;50.844;4.412;2023-03-02T01:29:36;7.80;72.10
27795;DHT22;15176;50.844;4.412;2023-03-02T01:32:03;7.70;72.20
27795;DHT22;15176;50.844;4.412;2023-03-02T01:34:28;7.60;72.70
27795;DHT22;15176;50.844;4.412;2023-03-02T01:36:54;7.60;73.10
27795;DHT22;15176;50.844;4.412;2023-03-02T01:39:20;7.60;73.60
27795;DHT22;15176;50.844;4.412;2023-03-02T01:41:51;7.70;74.50
27795;DHT22;15176;50.844;4.412;2023-03-02T01:44:38;7.90;75.40
27795;DHT22;15176;50.844;4.412;2023-03-02T01:50:16;8.00;73.60
27795;DHT22;15176;50.844;4.412;2023-03-02T01:52:44;8.00;73.80
27795;DHT22;15176;50.844;4.412;2023-03-02T01:55:12;8.00;73.50
27795;DHT22;15176;50.844;4.412;2023-03-02T01:57:41;8.20;73.20
27795;DHT22;15176;50.844;4.412;2023-03-02T02:00:20;8.30;71.70
27795;DHT22;15176;50.844;4.412;2023-03-02T02:02:47;8.20;71.70
27795;DHT22;15176;50.844;4.412;2023-03-02T02:05:20;8.20;73.70
27795;DHT22;15176;50.844;4.412;2023-03-02T02:07:47;8.40;73.60
27795;DHT22;15176;50.844;4.412;2023-03-02T02:10:13;8.50;74.90
27795;DHT22;15176;50.844;4.412;2023-03-02T02:12:39;8.70;73.40
27795;DHT22;15176;50.844;4.412;2023-03-02T02:15:05;8.90;74.40
27795;DHT22;15176;50.844;4.412;2023-03-02T02:17:32;9.00;69.10
27795;DHT22;15176;50.844;4.412;2023-03-02T02:23:24;8.90;71.00
27795;DHT22;15176;50.844;4.412;2023-03-02T02:32:09;8.50;72.10
27795;DHT22;15176;50.844;4.412;2023-03-02T02:34:55;8.60;73.10
27795;DHT22;15176;50.844;4.412;2023-03-02T02:37:56;8.60;71.20
27795;DHT22;15176;50.844;4.412;2023-03-02T02:40:20;8.40;70.70
27795;DHT22;15176;50.844;4.412;2023-03-02T02:42:48;8.10;72.10
27795;DHT22;15176;50.844;4.412;2023-03-02T02:45:34;8.00;72.40
27795;DHT22;15176;50.844;4.412;2023-03-02T02:48:00;7.90;75.30
27795;DHT22;15176;50.844;4.412;2023-03-02T02:50:30;7.90;74.00
27795;DHT22;15176;50.844;4.412;2023-03-02T02:53:15;8.00;74.60
27795;DHT22;15176;50.844;4.412;2023-03-02T02:55:42;8.20;74.80
27795;DHT22;15176;50.844;4.412;2023-03-02T03:00:59;8.00;73.20
27795;DHT22;15176;50.844;4.412;2023-03-02T03:03:49;7.90;73.30
27795;DHT22;15176;50.844;4.412;2023-03-02T03:06:23;8.20;75.20
27795;DHT22;15176;50.844;4.412;2023-03-02T03:08:59;8.20;74.10
27795;DHT22;15176;50.844;4.412;2023-03-02T03:11:31;8.20;73.90
27795;DHT22;15176;50.844;4.412;2023-03-02T03:14:13;8.10;74.90
27795;DHT22;15176;50.844;4.412;2023-03-02T03:16:41;8.00;73.80
27795;DHT22;15176;50.844;4.412;2023-03-02T03:19:18;7.90;75.00
27795;DHT22;15176;50.844;4.412;2023-03-02T03:21:48;7.90;75.70
27795;DHT22;15176;50.844;4.412;2023-03-02T03:24:14;7.60;76.20
27795;DHT22;15176;50.844;4.412;2023-03-02T03:26:40;7.70;77.70
27795;DHT22;15176;50.844;4.412;2023-03-02T03:29:06;7.70;76.70
27795;DHT22;15176;50.844;4.412;2023-03-02T03:31:32;7.60;75.20
27795;DHT22;15176;50.844;4.412;2023-03-02T03:33:58;7.30;75.90
27795;DHT22;15176;50.844;4.412;2023-03-02T03:36:28;7.30;78.00
27795;DHT22;15176;50.844;4.412;2023-03-02T03:38:55;7.30;76.80
27795;DHT22;15176;50.844;4.412;2023-03-02T03:41:22;7.20;77.30
27795;DHT22;15176;50.844;4.412;2023-03-02T03:43:47;7.10;77.40
27795;DHT22;15176;50.844;4.412;2023-03-02T03:46:13;6.90;78.50
27795;DHT22;15176;50.844;4.412;2023-03-02T03:48:39;7.00;79.30
27795;DHT22;15176;50.844;4.412;2023-03-02T03:51:05;7.10;80.30
27795;DHT22;15176;50.844;4.412;2023-03-02T03:53:31;7.10;79.30
27795;DHT22;15176;50.844;4.412;2023-03-02T03:55:57;7.00;79.40
27795;DHT22;15176;50.844;4.412;2023-03-02T03:58:24;6.90;80.10
27795;DHT22;15176;50.844;4.412;2023-03-02T04:00:51;7.00;80.90
27795;DHT22;15176;50.844;4.412;2023-03-02T04:03:17;7.00;80.90
27795;DHT22;15176;50.844;4.412;2023-03-02T04:05:44;6.90;80.80
27795;DHT22;15176;50.844;4.412;2023-03-02T04:08:10;6.70;81.20
27795;DHT22;15176;50.844;4.412;2023-03-02T04:10:38;6.80;82.70
27795;DHT22;15176;50.844;4.412;2023-03-02T04:13:04;7.20;83.70
27795;DHT22;15176;50.844;4.412;2023-03-02T04:15:30;7.60;82.60
27795;DHT22;15176;50.844;4.412;2023-03-02T04:17:56;7.80;81.40
27795;DHT22;15176;50.844;4.412;2023-03-02T04:20:23;8.00;82.00
27795;DHT22;15176;50.844;4.412;2023-03-02T04:22:51;8.00;81.00
27795;DHT22;15176;50.844;4.412;2023-03-02T04:25:19;7.90;78.40
27795;DHT22;15176;50.844;4.412;2023-03-02T04:27:47;8.10;77.50
27795;DHT22;15176;50.844;4.412;2023-03-02T04:30:16;8.10;79.80
27795;DHT22;15176;50.844;4.412;2023-03-02T04:32:42;7.90;77.50
27795;DHT22;15176;50.844;4.412;2023-03-02T04:35:10;7.90;78.50
27795;DHT22;15176;50.844;4.412;2023-03-02T04:37:36;7.80;77.70
27795;DHT22;15176;50.844;4.412;2023-03-02T04:40:02;7.70;80.90
27795;DHT22;15176;50.844;4.412;2023-03-02T04:42:29;7.80;80.30
27795;DHT22;15176;50.844;4.412;2023-03-02T04:44:55;7.60;80.00
27795;DHT22;15176;50.844;4.412;2023-03-02T04:47:21;7.60;78.90
27795;DHT22;15176;50.844;4.412;2023-03-02T04:49:46;7.50;79.60
27795;DHT22;15176;50.844;4.412;2023-03-02T04:52:15;7.40;79.40
27795;DHT22;15176;50.844;4.412;2023-03-02T04:54:40;7.20;79.60
27795;DHT22;15176;50.844;4.412;2023-03-02T04:57:06;7.10;80.40
27795;DHT22;15176;50.844;4.412;2023-03-02T04:59:33;7.20;80.60
27795;DHT22;15176;50.844;4.412;2023-03-02T05:02:02;7.40;81.90
27795;DHT22;15176;50.844;4.412;2023-03-02T05:04:28;7.70;83.50
27795;DHT22;15176;50.844;4.412;2023-03-02T05:06:54;7.60;80.30
27795;DHT22;15176;50.844;4.412;2023-03-02T05:09:20;7.60;80.90
27795;DHT22;15176;50.844;4.412;2023-03-02T05:11:52;7.50;79.90
27795;DHT22;15176;50.844;4.412;2023-03-02T05:14:18;7.50;80.20
27795;DHT22;15176;50.844;4.412;2023-03-02T05:16:44;7.30;79.50
27795;DHT22;15176;50.844;4.412;2023-03-02T05:19:10;6.90;81.00
27795;DHT22;15176;50.844;4.412;2023-03-02T05:21:36;6.90;82.70
27795;DHT22;15176;50.844;4.412;2023-03-02T05:24:02;6.80;83.20
27795;DHT22;15176;50.844;4.412;2023-03-02T05:26:28;7.10;85.40
27795;DHT22;15176;50.844;4.412;2023-03-02T05:28:54;7.10;82.60
27795;DHT22;15176;50.844;4.412;2023-03-02T05:31:22;7.00;82.30
27795;DHT22;15176;50.844;4.412;2023-03-02T05:33:49;6.80;82.80
27795;DHT22;15176;50.844;4.412;2023-03-02T05:36:15;6.50;84.10
27795;DHT22;15176;50.844;4.412;2023-03-02T05:38:40;6.00;85.70
27795;DHT22;15176;50.844;4.412;2023-03-02T05:41:07;5.80;88.20
27795;DHT22;15176;50.844;4.412;2023-03-02T05:43:32;5.80;88.70
27795;DHT22;15176;50.844;4.412;2023-03-02T05:45:58;5.90;89.50
27795;DHT22;15176;50.844;4.412;2023-03-02T05:48:33;5.90;89.30
27795;DHT22;15176;50.844;4.412;2023-03-02T05:50:59;5.90;89.00
27795;DHT22;15176;50.844;4.412;2023-03-02T05:53:25;5.80;89.00
27795;DHT22;15176;50.844;4.412;2023-03-02T05:55:51;5.90;89.40
27795;DHT22;15176;50.844;4.412;2023-03-02T05:58:18;5.90;88.50
27795;DHT22;15176;50.844;4.412;2023-03-02T06:00:45;5.70;90.30
27795;DHT22;15176;50.844;4.412;2023-03-02T06:03:11;5.50;90.60
27795;DHT22;15176;50.844;4.412;2023-03-02T06:05:37;5.50;90.90
27795;DHT22;15176;50.844;4.412;2023-03-02T06:08:03;5.40;90.90
27795;DHT22;15176;50.844;4.412;2023-03-02T06:10:29;5.40;91.20
27795;DHT22;15176;50.844;4.412;2023-03-02T06:12:55;5.20;91.70
27795;DHT22;15176;50.844;4.412;2023-03-02T06:15:22;5.20;91.80
27795;DHT22;15176;50.844;4.412;2023-03-02T06:17:48;5.10;92.00
27795;DHT22;15176;50.844;4.412;2023-03-02T06:20:15;5.10;92.50
27795;DHT22;15176;50.844;4.412;2023-03-02T06:22:43;5.10;92.40
27795;DHT22;15176;50.844;4.412;2023-03-02T06:25:19;5.00;92.80
27795;DHT22;15176;50.844;4.412;2023-03-02T06:27:46;5.30;92.90
27795;DHT22;15176;50.844;4.412;2023-03-02T06:30:15;5.20;92.40
27795;DHT22;15176;50.844;4.412;2023-03-02T06:32:41;5.10;93.00
27795;DHT22;15176;50.844;4.412;2023-03-02T06:35:08;4.80;93.70
27795;DHT22;15176;50.844;4.412;2023-03-02T06:37:34;4.90;93.80
27795;DHT22;15176;50.844;4.412;2023-03-02T06:39:59;4.90;93.80
27795;DHT22;15176;50.844;4.412;2023-03-02T06:42:26;4.80;94.30
27795;DHT22;15176;50.844;4.412;2023-03-02T06:44:53;4.80;94.20
27795;DHT22;15176;50.844;4.412;2023-03-02T06:47:22;5.10;94.80
27795;DHT22;15176;50.844;4.412;2023-03-02T06:49:48;5.30;93.90
27795;DHT22;15176;50.844;4.412;2023-03-02T06:52:14;5.30;93.70
27795;DHT22;15176;50.844;4.412;2023-03-02T06:54:40;5.10;93.80
27795;DHT22;15176;50.844;4.412;2023-03-02T06:57:06;5.20;93.90
27795;DHT22;15176;50.844;4.412;2023-03-02T06:59:32;5.10;94.10
27795;DHT22;15176;50.844;4.412;2023-03-02T07:01:58;4.60;95.30
27795;DHT22;15176;50.844;4.412;2023-03-02T07:04:24;4.60;95.60
27795;DHT22;15176;50.844;4.412;2023-03-02T07:06:50;4.10;97.20
27795;DHT22;15176;50.844;4.412;2023-03-02T07:09:15;4.60;97.00
27795;DHT22;15176;50.844;4.412;2023-03-02T07:11:42;4.80;96.20
27795;DHT22;15176;50.844;4.412;2023-03-02T07:14:08;5.00;95.60
27795;DHT22;15176;50.844;4.412;2023-03-02T07:16:34;5.00;95.60
27795;DHT22;15176;50.844;4.412;2023-03-02T07:19:00;4.80;96.20
27795;DHT22;15176;50.844;4.412;2023-03-02T07:21:26;4.80;96.80
27795;DHT22;15176;50.844;4.412;2023-03-02T07:23:52;5.00;96.60
27795;DHT22;15176;50.844;4.412;2023-03-02T07:26:19;4.80;96.20
27795;DHT22;15176;50.844;4.412;2023-03-02T07:28:45;4.40;97.90
27795;DHT22;15176;50.844;4.412;2023-03-02T07:31:11;4.70;97.80
27795;DHT22;15176;50.844;4.412;2023-03-02T07:33:38;5.00;97.00
27795;DHT22;15176;50.844;4.412;2023-03-02T07:36:05;5.20;96.80
27795;DHT22;15176;50.844;4.412;2023-03-02T07:38:31;5.20;96.30
27795;DHT22;15176;50.844;4.412;2023-03-02T07:40:57;5.30;95.90
27795;DHT22;15176;50.844;4.412;2023-03-02T07:43:23;5.10;96.50
27795;DHT22;15176;50.844;4.412;2023-03-02T07:45:50;5.10;96.50
27795;DHT22;15176;50.844;4.412;2023-03-02T07:48:16;5.10;96.70
27795;DHT22;15176;50.844;4.412;2023-03-02T07:50:44;4.80;97.40
27795;DHT22;15176;50.844;4.412;2023-03-02T07:53:10;4.90;97.70
27795;DHT22;15176;50.844;4.412;2023-03-02T07:55:39;4.70;97.60
27795;DHT22;15176;50.844;4.412;2023-03-02T07:58:05;4.70;97.40
27795;DHT22;15176;50.844;4.412;2023-03-02T08:00:33;4.50;98.40
27795;DHT22;15176;50.844;4.412;2023-03-02T08:03:01;4.60;98.90
27795;DHT22;15176;50.844;4.412;2023-03-02T08:05:26;4.70;98.50
27795;DHT22;15176;50.844;4.412;2023-03-02T08:07:52;4.90;99.10
27795;DHT22;15176;50.844;4.412;2023-03-02T08:10:18;5.00;98.60
27795;DHT22;15176;50.844;4.412;2023-03-02T08:12:44;5.20;97.50
27795;DHT22;15176;50.844;4.412;2023-03-02T08:15:10;4.90;97.90
27795;DHT22;15176;50.844;4.412;2023-03-02T08:17:36;4.60;99.20
27795;DHT22;15176;50.844;4.412;2023-03-02T08:20:04;4.50;99.50
27795;DHT22;15176;50.844;4.412;2023-03-02T08:22:30;4.50;99.90
27795;DHT22;15176;50.844;4.412;2023-03-02T08:24:57;4.60;99.90
27795;DHT22;15176;50.844;4.412;2023-03-02T08:27:23;5.40;99.90
27795;DHT22;15176;50.844;4.412;2023-03-02T08:29:48;6.50;98.10
27795;DHT22;15176;50.844;4.412;2023-03-02T08:32:14;7.50;94.40
27795;DHT22;15176;50.844;4.412;2023-03-02T08:34:40;8.40;91.10
27795;DHT22;15176;50.844;4.412;2023-03-02T08:37:09;8.80;87.90
27795;DHT22;15176;50.844;4.412;2023-03-02T08:39:36;9.20;84.40
27795;DHT22;15176;50.844;4.412;2023-03-02T08:42:02;9.50;83.10
27795;DHT22;15176;50.844;4.412;2023-03-02T08:44:28;9.80;80.10
27795;DHT22;15176;50.844;4.412;2023-03-02T08:46:54;10.00;77.40
27795;DHT22;15176;50.844;4.412;2023-03-02T08:49:20;10.20;75.60
27795;DHT22;15176;50.844;4.412;2023-03-02T08:51:47;10.50;76.30
27795;DHT22;15176;50.844;4.412;2023-03-02T08:54:20;10.90;72.80
27795;DHT22;15176;50.844;4.412;2023-03-02T08:56:48;11.20;71.70
27795;DHT22;15176;50.844;4.412;2023-03-02T08:59:14;11.70;70.70
27795;DHT22;15176;50.844;4.412;2023-03-02T09:01:41;12.20;66.50
27795;DHT22;15176;50.844;4.412;2023-03-02T09:04:08;12.00;66.40
27795;DHT22;15176;50.844;4.412;2023-03-02T09:06:37;12.50;64.20
27795;DHT22;15176;50.844;4.412;2023-03-02T09:09:05;12.40;63.90
27795;DHT22;15176;50.844;4.412;2023-03-02T09:11:31;13.10;62.80
27795;DHT22;15176;50.844;4.412;2023-03-02T09:13:57;13.40;61.30
27795;DHT22;15176;50.844;4.412;2023-03-02T09:16:23;13.70;59.30
27795;DHT22;15176;50.844;4.412;2023-03-02T09:18:50;14.20;58.00
27795;DHT22;15176;50.844;4.412;2023-03-02T09:21:17;14.50;56.60
27795;DHT22;15176;50.844;4.412;2023-03-02T09:23:44;14.50;56.30
27795;DHT22;15176;50.844;4.412;2023-03-02T09:26:10;14.90;55.40
27795;DHT22;15176;50.844;4.412;2023-03-02T09:28:36;14.90;55.10
27795;DHT22;15176;50.844;4.412;2023-03-02T09:31:04;15.20;53.80
27795;DHT22;15176;50.844;4.412;2023-03-02T09:33:31;15.10;53.90
27795;DHT22;15176;50.844;4.412;2023-03-02T09:35:59;15.50;53.50
27795;DHT22;15176;50.844;4.412;2023-03-02T09:38:26;15.50;52.70
27795;DHT22;15176;50.844;4.412;2023-03-02T09:46:17;16.50;50.20
27795;DHT22;15176;50.844;4.412;2023-03-02T09:49:00;16.60;50.10
27795;DHT22;15176;50.844;4.412;2023-03-02T09:54:13;16.70;49.70
27795;DHT22;15176;50.844;4.412;2023-03-02T09:56:45;16.60;49.30
27795;DHT22;15176;50.844;4.412;2023-03-02T09:59:28;17.20;48.90
27795;DHT22;15176;50.844;4.412;2023-03-02T10:02:00;17.00;48.30
27795;DHT22;15176;50.844;4.412;2023-03-02T10:04:37;17.00;48.20
27795;DHT22;15176;50.844;4.412;2023-03-02T10:09:37;17.40;48.20
27795;DHT22;15176;50.844;4.412;2023-03-02T10:15:09;17.70;48.00
27795;DHT22;15176;50.844;4.412;2023-03-02T10:17:47;18.10;47.50
27795;DHT22;15176;50.844;4.412;2023-03-02T10:20:31;17.90;46.50
27795;DHT22;15176;50.844;4.412;2023-03-02T10:23:16;18.30;46.50
27795;DHT22;15176;50.844;4.412;2023-03-02T10:25:51;18.20;45.60
27795;DHT22;15176;50.844;4.412;2023-03-02T10:28:24;17.90;45.70
27795;DHT22;15176;50.844;4.412;2023-03-02T10:31:32;18.00;46.30
27795;DHT22;15176;50.844;4.412;2023-03-02T10:33:58;18.40;46.30
27795;DHT22;15176;50.844;4.412;2023-03-02T10:36:27;18.40;45.60
27795;DHT22;15176;50.844;4.412;2023-03-02T10:38:54;17.80;45.30
27795;DHT22;15176;50.844;4.412;2023-03-02T10:41:31;17.90;45.80
27795;DHT22;15176;50.844;4.412;2023-03-02T10:44:18;18.10;45.60
27795;DHT22;15176;50.844;4.412;2023-03-02T10:46:45;18.10;45.20
27795;DHT22;15176;50.844;4.412;2023-03-02T10:52:12;18.20;44.70
27795;DHT22;15176;50.844;4.412;2023-03-02T10:54:38;17.70;46.30
27795;DHT22;15176;50.844;4.412;2023-03-02T10:57:27;18.00;45.80
27795;DHT22;15176;50.844;4.412;2023-03-02T11:00:42;18.00;45.60
27795;DHT22;15176;50.844;4.412;2023-03-02T11:02:55;18.20;45.20
27795;DHT22;15176;50.844;4.412;2023-03-02T11:07:57;18.80;45.20
27795;DHT22;15176;50.844;4.412;2023-03-02T11:10:26;18.40;44.90
27795;DHT22;15176;50.844;4.412;2023-03-02T11:12:53;18.60;45.00
27795;DHT22;15176;50.844;4.412;2023-03-02T11:18:39;19.00;44.10
27795;DHT22;15176;50.844;4.412;2023-03-02T11:20:46;18.90;44.10
27795;DHT22;15176;50.844;4.412;2023-03-02T11:24:23;18.50;44.30
27795;DHT22;15176;50.844;4.412;2023-03-02T11:37:11;18.00;44.90
27795;DHT22;15176;50.844;4.412;2023-03-02T11:42:35;17.70;47.00
27795;DHT22;15176;50.844;4.412;2023-03-02T11:45:24;18.10;46.40
27795;DHT22;15176;50.844;4.412;2023-03-02T11:50:45;18.40;44.80
27795;DHT22;15176;50.844;4.412;2023-03-02T11:53:18;18.70;44.20
27795;DHT22;15176;50.844;4.412;2023-03-02T11:55:46;18.80;44.50
27795;DHT22;15176;50.844;4.412;2023-03-02T11:58:21;19.30;44.40
27795;DHT22;15176;50.844;4.412;2023-03-02T12:00:48;19.20;44.00
27795;DHT22;15176;50.844;4.412;2023-03-02T12:05:43;18.90;43.80
27795;DHT22;15176;50.844;4.412;2023-03-02T12:10:59;18.80;45.60
27795;DHT22;15176;50.844;4.412;2023-03-02T12:13:35;19.00;44.90
27795;DHT22;15176;50.844;4.412;2023-03-02T12:16:02;18.80;44.60
27795;DHT22;15176;50.844;4.412;2023-03-02T12:18:49;18.60;45.10
27795;DHT22;15176;50.844;4.412;2023-03-02T12:21:19;18.10;45.30
27795;DHT22;15176;50.844;4.412;2023-03-02T12:31:51;18.30;45.50
27795;DHT22;15176;50.844;4.412;2023-03-02T12:36:59;18.50;45.80
27795;DHT22;15176;50.844;4.412;2023-03-02T12:39:43;18.50;46.20
27795;DHT22;15176;50.844;4.412;2023-03-02T12:47:46;18.60;45.10
27795;DHT22;15176;50.844;4.412;2023-03-02T12:50:19;18.60;45.20
27795;DHT22;15176;50.844;4.412;2023-03-02T12:53:00;18.60;45.30
27795;DHT22;15176;50.844;4.412;2023-03-02T12:55:27;18.50;45.30
27795;DHT22;15176;50.844;4.412;2023-03-02T12:57:56;18.50;45.80
27795;DHT22;15176;50.844;4.412;2023-03-02T13:00:28;18.50;45.90
27795;DHT22;15176;50.844;4.412;2023-03-02T13:02:56;18.60;45.10
27795;DHT22;15176;50.844;4.412;2023-03-02T13:05:28;18.90;45.10
27795;DHT22;15176;50.844;4.412;2023-03-02T13:08:04;18.90;44.60
27795;DHT22;15176;50.844;4.412;2023-03-02T13:10:37;18.80;45.20
27795;DHT22;15176;50.844;4.412;2023-03-02T13:13:24;18.70;46.00
27795;DHT22;15176;50.844;4.412;2023-03-02T13:15:52;18.60;45.50
27795;DHT22;15176;50.844;4.412;2023-03-02T13:18:20;18.00;46.60
27795;DHT22;15176;50.844;4.412;2023-03-02T13:20:48;18.00;47.10
27795;DHT22;15176;50.844;4.412;2023-03-02T13:23:15;18.00;46.50
27795;DHT22;15176;50.844;4.412;2023-03-02T13:25:54;18.20;46.70
27795;DHT22;15176;50.844;4.412;2023-03-02T13:28:33;18.60;46.30
27795;DHT22;15176;50.844;4.412;2023-03-02T13:31:21;18.70;45.60
27795;DHT22;15176;50.844;4.412;2023-03-02T13:33:48;17.90;46.30
27795;DHT22;15176;50.844;4.412;2023-03-02T13:38:47;17.50;47.20
27795;DHT22;15176;50.844;4.412;2023-03-02T13:41:21;17.80;47.20
27795;DHT22;15176;50.844;4.412;2023-03-02T13:43:47;17.70;47.30
27795;DHT22;15176;50.844;4.412;2023-03-02T13:49:01;17.60;47.60
27795;DHT22;15176;50.844;4.412;2023-03-02T13:51:34;17.20;48.50
27795;DHT22;15176;50.844;4.412;2023-03-02T13:54:18;17.30;48.60
27795;DHT22;15176;50.844;4.412;2023-03-02T13:56:45;17.40;47.90
27795;DHT22;15176;50.844;4.412;2023-03-02T13:59:16;17.40;48.00
27795;DHT22;15176;50.844;4.412;2023-03-02T14:01:43;17.50;48.00
27795;DHT22;15176;50.844;4.412;2023-03-02T14:04:13;17.40;48.40
27795;DHT22;15176;50.844;4.412;2023-03-02T14:06:40;17.40;48.30
27795;DHT22;15176;50.844;4.412;2023-03-02T14:09:08;17.60;48.40
27795;DHT22;15176;50.844;4.412;2023-03-02T14:11:40;17.80;47.90
27795;DHT22;15176;50.844;4.412;2023-03-02T14:14:11;17.40;47.60
27795;DHT22;15176;50.844;4.412;2023-03-02T14:16:38;16.90;49.30
27795;DHT22;15176;50.844;4.412;2023-03-02T14:19:04;16.70;49.80
27795;DHT22;15176;50.844;4.412;2023-03-02T14:21:30;16.80;49.50
27795;DHT22;15176;50.844;4.412;2023-03-02T14:23:55;17.00;49.20
27795;DHT22;15176;50.844;4.412;2023-03-02T14:26:39;17.00;49.10
27795;DHT22;15176;50.844;4.412;2023-03-02T14:29:34;17.00;49.20
27795;DHT22;15176;50.844;4.412;2023-03-02T14:32:03;17.40;48.80
27795;DHT22;15176;50.844;4.412;2023-03-02T14:34:31;17.10;48.50
27795;DHT22;15176;50.844;4.412;2023-03-02T14:37:03;16.90;49.10
27795;DHT22;15176;50.844;4.412;2023-03-02T14:39:49;17.00;49.20
27795;DHT22;15176;50.844;4.412;2023-03-02T14:42:18;16.80;49.80
27795;DHT22;15176;50.844;4.412;2023-03-02T14:44:46;16.80;50.00
27795;DHT22;15176;50.844;4.412;2023-03-02T14:47:13;16.50;50.10
27795;DHT22;15176;50.844;4.412;2023-03-02T14:49:41;16.40;50.10
27795;DHT22;15176;50.844;4.412;2023-03-02T14:52:25;16.20;50.50
27795;DHT22;15176;50.844;4.412;2023-03-02T14:55:19;16.30;50.70
27795;DHT22;15176;50.844;4.412;2023-03-02T14:57:53;16.20;51.20
27795;DHT22;15176;50.844;4.412;2023-03-02T15:00:20;16.60;50.70
27795;DHT22;15176;50.844;4.412;2023-03-02T15:02:46;16.50;50.60
27795;DHT22;15176;50.844;4.412;2023-03-02T15:05:12;16.80;50.50
27795;DHT22;15176;50.844;4.412;2023-03-02T15:07:38;16.20;50.70
27795;DHT22;15176;50.844;4.412;2023-03-02T15:10:06;16.10;51.50
27795;DHT22;15176;50.844;4.412;2023-03-02T15:12:32;16.30;51.40
27795;DHT22;15176;50.844;4.412;2023-03-02T15:14:59;16.50;50.60
27795;DHT22;15176;50.844;4.412;2023-03-02T15:17:25;16.30;51.00
27795;DHT22;15176;50.844;4.412;2023-03-02T15:19:51;16.20;50.80
27795;DHT22;15176;50.844;4.412;2023-03-02T15:22:16;16.10;50.70
27795;DHT22;15176;50.844;4.412;2023-03-02T15:24:42;16.10;51.10
27795;DHT22;15176;50.844;4.412;2023-03-02T15:27:08;15.90;51.90
27795;DHT22;15176;50.844;4.412;2023-03-02T15:29:35;15.70;51.90
27795;DHT22;15176;50.844;4.412;2023-03-02T15:32:00;15.40;52.90
27795;DHT22;15176;50.844;4.412;2023-03-02T15:34:28;15.50;52.60
27795;DHT22;15176;50.844;4.412;2023-03-02T15:36:54;15.60;52.10
27795;DHT22;15176;50.844;4.412;2023-03-02T15:39:22;15.40;52.50
27795;DHT22;15176;50.844;4.412;2023-03-02T15:41:48;15.30;53.00
27795;DHT22;15176;50.844;4.412;2023-03-02T15:44:16;14.80;54.00
27795;DHT22;15176;50.844;4.412;2023-03-02T15:46:47;14.70;54.30
27795;DHT22;15176;50.844;4.412;2023-03-02T15:49:13;14.50;54.80
27795;DHT22;15176;50.844;4.412;2023-03-02T15:51:39;14.60;54.80
27795;DHT22;15176;50.844;4.412;2023-03-02T15:54:04;14.60;54.70
27795;DHT22;15176;50.844;4.412;2023-03-02T15:56:31;14.30;55.60
27795;DHT22;15176;50.844;4.412;2023-03-02T15:58:57;14.20;56.10
27795;DHT22;15176;50.844;4.412;2023-03-02T16:01:23;14.30;55.60
27795;DHT22;15176;50.844;4.412;2023-03-02T16:03:49;14.30;55.90
27795;DHT22;15176;50.844;4.412;2023-03-02T16:06:14;14.20;56.10
27795;DHT22;15176;50.844;4.412;2023-03-02T16:08:40;14.20;56.30
27795;DHT22;15176;50.844;4.412;2023-03-02T16:11:07;14.00;56.80
27795;DHT22;15176;50.844;4.412;2023-03-02T16:13:33;13.90;57.30
27795;DHT22;15176;50.844;4.412;2023-03-02T16:16:01;14.00;56.50
27795;DHT22;15176;50.844;4.412;2023-03-02T16:18:27;14.10;56.80
27795;DHT22;15176;50.844;4.412;2023-03-02T16:20:53;14.00;57.20
27795;DHT22;15176;50.844;4.412;2023-03-02T16:23:18;14.00;57.00
27795;DHT22;15176;50.844;4.412;2023-03-02T16:25:45;13.90;57.30
27795;DHT22;15176;50.844;4.412;2023-03-02T16:28:17;13.60;57.90
27795;DHT22;15176;50.844;4.412;2023-03-02T16:30:43;13.30;59.00
27795;DHT22;15176;50.844;4.412;2023-03-02T16:33:12;13.40;60.00
27795;DHT22;15176;50.844;4.412;2023-03-02T16:35:38;13.30;59.10
27795;DHT22;15176;50.844;4.412;2023-03-02T16:38:05;13.40;58.80
27795;DHT22;15176;50.844;4.412;2023-03-02T16:40:32;13.30;59.20
27795;DHT22;15176;50.844;4.412;2023-03-02T16:42:58;13.20;59.40
27795;DHT22;15176;50.844;4.412;2023-03-02T16:45:25;13.30;59.70
27795;DHT22;15176;50.844;4.412;2023-03-02T16:47:52;13.20;60.20
27795;DHT22;15176;50.844;4.412;2023-03-02T16:50:18;13.30;60.00
27795;DHT22;15176;50.844;4.412;2023-03-02T16:52:45;13.40;60.10
27795;DHT22;15176;50.844;4.412;2023-03-02T16:55:14;13.50;59.50
27795;DHT22;15176;50.844;4.412;2023-03-02T16:57:41;13.10;59.80
27795;DHT22;15176;50.844;4.412;2023-03-02T17:00:09;12.90;60.80
27795;DHT22;15176;50.844;4.412;2023-03-02T17:02:35;12.80;61.40
27795;DHT22;15176;50.844;4.412;2023-03-02T17:05:00;12.70;62.00
27795;DHT22;15176;50.844;4.412;2023-03-02T17:07:26;12.80;62.30
27795;DHT22;15176;50.844;4.412;2023-03-02T17:09:52;12.70;62.80
27795;DHT22;15176;50.844;4.412;2023-03-02T17:12:18;12.60;63.40